sensor_id;sensor_type;location;lat;lon;timestamp;P1;durP1;ratioP1;P2;durP2;ratioP2
14907;SDS011;7545;52.092;7.006;2024-02-15T00:00:27;9.32;;;8.25;;
14907;SDS011;7545;52.092;7.006;2024-02-15T00:02:53;8.75;;;7.57;;
14907;SDS011;7545;52.092;7.006;2024-02-15T00:05:18;14.88;;;9.25;;
14907;SDS011;7545;52.092;7.006;2024-02-15T00:07:44;11.65;;;7.72;;
14907;SDS011;7545;52.092;7.006;2024-02-15T00:10:14;9.65;;;7.82;;
14907;SDS011;7545;52.092;7.006;2024-02-15T00:12:40;10.38;;;7.35;;
14907;SDS011;7545;52.092;7.006;2024-02-15T00:15:05;9.40;;;7.85;;
14907;SDS011;7545;52.092;7.006;2024-02-15T00:17:31;8.40;;;7.25;;
14907;SDS011;7545;52.092;7.006;2024-02-15T00:19:57;11.55;;;7.25;;
14907;SDS011;7545;52.092;7.006;2024-02-15T00:22:23;11.32;;;7.35;;
14907;SDS011;7545;52.092;7.006;2024-02-15T00:24:49;9.23;;;7.53;;
14907;SDS011;7545;52.092;7.006;2024-02-15T00:27:15;13.95;;;8.48;;
14907;SDS011;7545;52.092;7.006;2024-02-15T00:29:41;8.45;;;7.28;;
14907;SDS011;7545;52.092;7.006;2024-02-15T00:32:08;11.57;;;7.57;;
14907;SDS011;7545;52.092;7.006;2024-02-15T00:34:35;9.32;;;8.23;;
14907;SDS011;7545;52.092;7.006;2024-02-15T00:37:02;8.23;;;7.28;;
14907;SDS011;7545;52.092;7.006;2024-02-15T00:39:27;12.02;;;8.18;;
14907;SDS011;7545;52.092;7.006;2024-02-15T00:41:53;12.15;;;7.40;;
14907;SDS011;7545;52.092;7.006;2024-02-15T00:44:20;9.82;;;8.85;;
14907;SDS011;7545;52.092;7.006;2024-02-15T00:46:46;9.27;;;7.55;;
14907;SDS011;7545;52.092;7.006;2024-02-15T00:49:12;9.57;;;8.00;;
14907;SDS011;7545;52.092;7.006;2024-02-15T00:51:38;9.63;;;7.80;;
14907;SDS011;7545;52.092;7.006;2024-02-15T00:54:04;9.48;;;8.20;;
14907;SDS011;7545;52.092;7.006;2024-02-15T00:56:29;12.82;;;7.70;;
14907;SDS011;7545;52.092;7.006;2024-02-15T00:58:58;10.65;;;8.07;;
14907;SDS011;7545;52.092;7.006;2024-02-15T01:01:25;9.65;;;7.85;;
14907;SDS011;7545;52.092;7.006;2024-02-15T01:03:51;10.85;;;7.47;;
14907;SDS011;7545;52.092;7.006;2024-02-15T01:06:17;10.80;;;8.18;;
14907;SDS011;7545;52.092;7.006;2024-02-15T01:08:48;11.07;;;8.38;;
14907;SDS011;7545;52.092;7.006;2024-02-15T01:11:14;9.95;;;8.25;;
14907;SDS011;7545;52.092;7.006;2024-02-15T01:13:42;12.18;;;8.75;;
14907;SDS011;7545;52.092;7.006;2024-02-15T01:16:09;10.02;;;8.52;;
14907;SDS011;7545;52.092;7.006;2024-02-15T01:18:35;9.10;;;7.93;;
14907;SDS011;7545;52.092;7.006;2024-02-15T01:21:00;11.25;;;9.20;;
14907;SDS011;7545;52.092;7.006;2024-02-15T01:23:26;11.73;;;8.88;;
14907;SDS011;7545;52.092;7.006;2024-02-15T01:25:52;12.73;;;8.77;;
14907;SDS011;7545;52.092;7.006;2024-02-15T01:28:18;14.55;;;8.60;;
14907;SDS011;7545;52.092;7.006;2024-02-15T01:30:44;10.75;;;7.75;;
14907;SDS011;7545;52.092;7.006;2024-02-15T01:33:11;11.65;;;8.35;;
14907;SDS011;7545;52.092;7.006;2024-02-15T01:35:36;10.18;;;7.78;;
14907;SDS011;7545;52.092;7.006;2024-02-15T01:38:03;11.77;;;8.43;;
14907;SDS011;7545;52.092;7.006;2024-02-15T01:40:29;11.32;;;7.28;;
14907;SDS011;7545;52.092;7.006;2024-02-15T01:42:54;11.40;;;8.48;;
14907;SDS011;7545;52.092;7.006;2024-02-15T01:45:20;12.60;;;8.90;;
14907;SDS011;7545;52.092;7.006;2024-02-15T01:47:49;9.60;;;7.45;;
14907;SDS011;7545;52.092;7.006;2024-02-15T01:50:15;9.98;;;8.20;;
14907;SDS011;7545;52.092;7.006;2024-02-15T01:52:42;12.85;;;8.40;;
14907;SDS011;7545;52.092;7.006;2024-02-15T01:55:12;11.13;;;8.13;;
14907;SDS011;7545;52.092;7.006;2024-02-15T01:57:39;14.07;;;8.27;;
14907;SDS011;7545;52.092;7.006;2024-02-15T02:00:08;14.32;;;9.82;;
14907;SDS011;7545;52.092;7.006;2024-02-15T02:02:35;16.38;;;9.82;;
14907;SDS011;7545;52.092;7.006;2024-02-15T02:05:02;15.07;;;9.98;;
14907;SDS011;7545;52.092;7.006;2024-02-15T02:07:28;12.18;;;9.85;;
14907;SDS011;7545;52.092;7.006;2024-02-15T02:09:57;12.10;;;9.57;;
14907;SDS011;7545;52.092;7.006;2024-02-15T02:12:23;13.15;;;9.23;;
14907;SDS011;7545;52.092;7.006;2024-02-15T02:14:52;11.85;;;9.95;;
14907;SDS011;7545;52.092;7.006;2024-02-15T02:17:18;12.75;;;10.25;;
14907;SDS011;7545;52.092;7.006;2024-02-15T02:19:45;14.25;;;10.57;;
14907;SDS011;7545;52.092;7.006;2024-02-15T02:22:11;13.10;;;9.88;;
14907;SDS011;7545;52.092;7.006;2024-02-15T02:24:40;15.23;;;9.82;;
14907;SDS011;7545;52.092;7.006;2024-02-15T02:27:30;13.35;;;9.73;;
14907;SDS011;7545;52.092;7.006;2024-02-15T02:29:57;14.07;;;10.20;;
14907;SDS011;7545;52.092;7.006;2024-02-15T02:32:24;13.52;;;9.90;;
14907;SDS011;7545;52.092;7.006;2024-02-15T02:34:53;12.68;;;10.00;;
14907;SDS011;7545;52.092;7.006;2024-02-15T02:37:24;14.95;;;10.65;;
14907;SDS011;7545;52.092;7.006;2024-02-15T02:39:50;15.82;;;11.60;;
14907;SDS011;7545;52.092;7.006;2024-02-15T02:42:16;12.23;;;10.00;;
14907;SDS011;7545;52.092;7.006;2024-02-15T02:44:42;11.32;;;9.60;;
14907;SDS011;7545;52.092;7.006;2024-02-15T02:47:07;17.90;;;10.88;;
14907;SDS011;7545;52.092;7.006;2024-02-15T02:49:35;13.02;;;10.27;;
14907;SDS011;7545;52.092;7.006;2024-02-15T02:52:00;14.88;;;10.85;;
14907;SDS011;7545;52.092;7.006;2024-02-15T02:54:26;14.07;;;10.27;;
14907;SDS011;7545;52.092;7.006;2024-02-15T02:56:51;15.82;;;10.90;;
14907;SDS011;7545;52.092;7.006;2024-02-15T02:59:17;12.95;;;9.60;;
14907;SDS011;7545;52.092;7.006;2024-02-15T03:01:43;19.25;;;10.60;;
14907;SDS011;7545;52.092;7.006;2024-02-15T03:04:08;14.73;;;9.75;;
14907;SDS011;7545;52.092;7.006;2024-02-15T03:06:34;13.15;;;10.23;;
14907;SDS011;7545;52.092;7.006;2024-02-15T03:09:00;12.48;;;9.93;;
14907;SDS011;7545;52.092;7.006;2024-02-15T03:11:26;12.40;;;9.48;;
14907;SDS011;7545;52.092;7.006;2024-02-15T03:13:52;16.30;;;9.48;;
14907;SDS011;7545;52.092;7.006;2024-02-15T03:16:21;15.32;;;9.15;;
14907;SDS011;7545;52.092;7.006;2024-02-15T03:18:47;18.15;;;10.38;;
14907;SDS011;7545;52.092;7.006;2024-02-15T03:21:13;14.52;;;9.38;;
14907;SDS011;7545;52.092;7.006;2024-02-15T03:23:40;15.07;;;8.85;;
14907;SDS011;7545;52.092;7.006;2024-02-15T03:26:07;12.55;;;8.43;;
14907;SDS011;7545;52.092;7.006;2024-02-15T03:28:33;13.73;;;8.45;;
14907;SDS011;7545;52.092;7.006;2024-02-15T03:31:01;17.08;;;8.70;;
14907;SDS011;7545;52.092;7.006;2024-02-15T03:33:27;9.88;;;7.88;;
14907;SDS011;7545;52.092;7.006;2024-02-15T03:35:57;12.43;;;8.48;;
14907;SDS011;7545;52.092;7.006;2024-02-15T03:38:24;13.07;;;8.80;;
14907;SDS011;7545;52.092;7.006;2024-02-15T03:40:57;13.07;;;9.32;;
14907;SDS011;7545;52.092;7.006;2024-02-15T03:43:23;18.80;;;9.93;;
14907;SDS011;7545;52.092;7.006;2024-02-15T03:45:49;15.43;;;9.80;;
14907;SDS011;7545;52.092;7.006;2024-02-15T03:48:15;16.77;;;10.75;;
14907;SDS011;7545;52.092;7.006;2024-02-15T03:50:41;13.38;;;9.73;;
14907;SDS011;7545;52.092;7.006;2024-02-15T03:53:09;18.63;;;9.50;;
14907;SDS011;7545;52.092;7.006;2024-02-15T03:55:36;15.63;;;9.80;;
14907;SDS011;7545;52.092;7.006;2024-02-15T03:58:01;15.25;;;9.32;;
14907;SDS011;7545;52.092;7.006;2024-02-15T04:00:27;13.38;;;8.40;;
14907;SDS011;7545;52.092;7.006;2024-02-15T04:02:53;16.25;;;9.63;;
14907;SDS011;7545;52.092;7.006;2024-02-15T04:05:19;12.43;;;7.63;;
14907;SDS011;7545;52.092;7.006;2024-02-15T04:07:46;13.23;;;7.70;;
14907;SDS011;7545;52.092;7.006;2024-02-15T04:10:13;15.75;;;8.25;;
14907;SDS011;7545;52.092;7.006;2024-02-15T04:12:38;9.45;;;7.10;;
14907;SDS011;7545;52.092;7.006;2024-02-15T04:15:07;14.27;;;8.35;;
14907;SDS011;7545;52.092;7.006;2024-02-15T04:17:37;13.85;;;7.45;;
14907;SDS011;7545;52.092;7.006;2024-02-15T04:20:07;11.93;;;7.40;;
14907;SDS011;7545;52.092;7.006;2024-02-15T04:22:34;15.27;;;7.68;;
14907;SDS011;7545;52.092;7.006;2024-02-15T04:25:06;10.25;;;6.72;;
14907;SDS011;7545;52.092;7.006;2024-02-15T04:27:34;12.90;;;7.57;;
14907;SDS011;7545;52.092;7.006;2024-02-15T04:30:00;10.07;;;5.90;;
14907;SDS011;7545;52.092;7.006;2024-02-15T04:32:29;11.82;;;6.70;;
14907;SDS011;7545;52.092;7.006;2024-02-15T04:34:58;11.45;;;6.88;;
14907;SDS011;7545;52.092;7.006;2024-02-15T04:37:24;12.65;;;6.75;;
14907;SDS011;7545;52.092;7.006;2024-02-15T04:39:53;9.05;;;6.30;;
14907;SDS011;7545;52.092;7.006;2024-02-15T04:42:19;9.32;;;6.85;;
14907;SDS011;7545;52.092;7.006;2024-02-15T04:44:48;13.73;;;6.47;;
14907;SDS011;7545;52.092;7.006;2024-02-15T04:47:13;13.07;;;6.50;;
14907;SDS011;7545;52.092;7.006;2024-02-15T04:49:39;10.63;;;5.70;;
14907;SDS011;7545;52.092;7.006;2024-02-15T04:52:05;10.15;;;6.28;;
14907;SDS011;7545;52.092;7.006;2024-02-15T04:54:31;12.23;;;6.22;;
14907;SDS011;7545;52.092;7.006;2024-02-15T04:56:57;13.48;;;6.35;;
14907;SDS011;7545;52.092;7.006;2024-02-15T04:59:23;11.07;;;5.85;;
14907;SDS011;7545;52.092;7.006;2024-02-15T05:01:54;11.90;;;5.88;;
14907;SDS011;7545;52.092;7.006;2024-02-15T05:04:21;9.48;;;5.35;;
14907;SDS011;7545;52.092;7.006;2024-02-15T05:06:53;11.95;;;5.70;;
14907;SDS011;7545;52.092;7.006;2024-02-15T05:09:20;9.95;;;5.35;;
14907;SDS011;7545;52.092;7.006;2024-02-15T05:11:47;9.85;;;5.32;;
14907;SDS011;7545;52.092;7.006;2024-02-15T05:14:14;16.02;;;5.72;;
14907;SDS011;7545;52.092;7.006;2024-02-15T05:16:44;10.13;;;5.85;;
14907;SDS011;7545;52.092;7.006;2024-02-15T05:19:16;18.60;;;6.25;;
14907;SDS011;7545;52.092;7.006;2024-02-15T05:21:43;9.20;;;5.40;;
14907;SDS011;7545;52.092;7.006;2024-02-15T05:24:15;7.55;;;5.85;;
14907;SDS011;7545;52.092;7.006;2024-02-15T05:26:43;11.35;;;6.00;;
14907;SDS011;7545;52.092;7.006;2024-02-15T05:29:11;9.25;;;5.68;;
14907;SDS011;7545;52.092;7.006;2024-02-15T05:31:37;7.88;;;4.65;;
14907;SDS011;7545;52.092;7.006;2024-02-15T05:34:04;15.57;;;5.13;;
14907;SDS011;7545;52.092;7.006;2024-02-15T05:36:32;10.60;;;5.00;;
14907;SDS011;7545;52.092;7.006;2024-02-15T05:38:58;6.72;;;5.00;;
14907;SDS011;7545;52.092;7.006;2024-02-15T05:41:25;6.32;;;3.97;;
14907;SDS011;7545;52.092;7.006;2024-02-15T05:43:51;5.15;;;4.22;;
14907;SDS011;7545;52.092;7.006;2024-02-15T05:46:19;9.43;;;4.90;;
14907;SDS011;7545;52.092;7.006;2024-02-15T05:48:48;6.97;;;4.72;;
14907;SDS011;7545;52.092;7.006;2024-02-15T05:51:14;7.82;;;5.15;;
14907;SDS011;7545;52.092;7.006;2024-02-15T05:53:40;6.88;;;4.25;;
14907;SDS011;7545;52.092;7.006;2024-02-15T05:56:07;7.00;;;3.92;;
14907;SDS011;7545;52.092;7.006;2024-02-15T05:58:33;4.70;;;3.85;;
14907;SDS011;7545;52.092;7.006;2024-02-15T06:01:01;10.88;;;4.75;;
14907;SDS011;7545;52.092;7.006;2024-02-15T06:03:32;7.47;;;3.75;;
14907;SDS011;7545;52.092;7.006;2024-02-15T06:06:02;9.27;;;4.30;;
14907;SDS011;7545;52.092;7.006;2024-02-15T06:08:31;7.47;;;3.85;;
14907;SDS011;7545;52.092;7.006;2024-02-15T06:10:58;4.75;;;3.90;;
14907;SDS011;7545;52.092;7.006;2024-02-15T06:13:24;8.73;;;3.90;;
14907;SDS011;7545;52.092;7.006;2024-02-15T06:15:50;10.75;;;4.30;;
14907;SDS011;7545;52.092;7.006;2024-02-15T06:18:19;5.50;;;3.50;;
14907;SDS011;7545;52.092;7.006;2024-02-15T06:20:53;6.50;;;3.28;;
14907;SDS011;7545;52.092;7.006;2024-02-15T06:23:19;8.82;;;3.22;;
14907;SDS011;7545;52.092;7.006;2024-02-15T06:25:48;5.97;;;3.45;;
14907;SDS011;7545;52.092;7.006;2024-02-15T06:28:18;5.40;;;3.13;;
14907;SDS011;7545;52.092;7.006;2024-02-15T06:31:07;8.43;;;3.35;;
14907;SDS011;7545;52.092;7.006;2024-02-15T06:33:51;11.15;;;3.35;;
14907;SDS011;7545;52.092;7.006;2024-02-15T06:36:39;9.73;;;3.80;;
14907;SDS011;7545;52.092;7.006;2024-02-15T06:39:24;5.97;;;2.70;;
14907;SDS011;7545;52.092;7.006;2024-02-15T06:42:08;4.18;;;2.75;;
14907;SDS011;7545;52.092;7.006;2024-02-15T06:44:36;4.90;;;2.75;;
14907;SDS011;7545;52.092;7.006;2024-02-15T06:47:03;7.05;;;3.00;;
14907;SDS011;7545;52.092;7.006;2024-02-15T06:49:29;6.32;;;3.13;;
14907;SDS011;7545;52.092;7.006;2024-02-15T06:51:54;6.93;;;3.38;;
14907;SDS011;7545;52.092;7.006;2024-02-15T06:54:20;5.78;;;3.20;;
14907;SDS011;7545;52.092;7.006;2024-02-15T06:56:45;7.90;;;3.70;;
14907;SDS011;7545;52.092;7.006;2024-02-15T06:59:12;4.60;;;3.40;;
14907;SDS011;7545;52.092;7.006;2024-02-15T07:01:43;5.20;;;2.55;;
14907;SDS011;7545;52.092;7.006;2024-02-15T07:04:09;5.57;;;2.95;;
14907;SDS011;7545;52.092;7.006;2024-02-15T07:06:36;6.97;;;3.25;;
14907;SDS011;7545;52.092;7.006;2024-02-15T07:09:02;8.27;;;4.43;;
14907;SDS011;7545;52.092;7.006;2024-02-15T07:11:29;5.43;;;3.63;;
14907;SDS011;7545;52.092;7.006;2024-02-15T07:13:56;6.90;;;3.38;;
14907;SDS011;7545;52.092;7.006;2024-02-15T07:16:22;4.82;;;3.00;;
14907;SDS011;7545;52.092;7.006;2024-02-15T07:18:48;8.82;;;3.60;;
14907;SDS011;7545;52.092;7.006;2024-02-15T07:21:14;5.43;;;3.55;;
14907;SDS011;7545;52.092;7.006;2024-02-15T07:23:42;6.07;;;3.25;;
14907;SDS011;7545;52.092;7.006;2024-02-15T07:26:07;5.03;;;2.83;;
14907;SDS011;7545;52.092;7.006;2024-02-15T07:28:33;3.80;;;2.97;;
14907;SDS011;7545;52.092;7.006;2024-02-15T07:30:59;5.28;;;2.55;;
14907;SDS011;7545;52.092;7.006;2024-02-15T07:33:27;5.43;;;3.10;;
14907;SDS011;7545;52.092;7.006;2024-02-15T07:35:53;4.00;;;2.67;;
14907;SDS011;7545;52.092;7.006;2024-02-15T07:38:19;4.50;;;2.88;;
14907;SDS011;7545;52.092;7.006;2024-02-15T07:40:47;4.63;;;2.70;;
14907;SDS011;7545;52.092;7.006;2024-02-15T07:43:13;4.65;;;2.53;;
14907;SDS011;7545;52.092;7.006;2024-02-15T07:45:39;4.93;;;2.97;;
14907;SDS011;7545;52.092;7.006;2024-02-15T07:48:05;6.07;;;2.95;;
14907;SDS011;7545;52.092;7.006;2024-02-15T07:50:31;7.13;;;3.10;;
14907;SDS011;7545;52.092;7.006;2024-02-15T07:52:57;5.70;;;3.25;;
14907;SDS011;7545;52.092;7.006;2024-02-15T07:55:23;4.72;;;2.95;;
14907;SDS011;7545;52.092;7.006;2024-02-15T07:57:49;5.03;;;3.20;;
14907;SDS011;7545;52.092;7.006;2024-02-15T08:00:18;3.88;;;2.63;;
14907;SDS011;7545;52.092;7.006;2024-02-15T08:02:44;5.57;;;2.55;;
14907;SDS011;7545;52.092;7.006;2024-02-15T08:05:11;5.78;;;2.90;;
14907;SDS011;7545;52.092;7.006;2024-02-15T08:07:43;5.10;;;3.70;;
14907;SDS011;7545;52.092;7.006;2024-02-15T08:10:10;5.00;;;3.08;;
14907;SDS011;7545;52.092;7.006;2024-02-15T08:12:42;7.05;;;2.47;;
14907;SDS011;7545;52.092;7.006;2024-02-15T08:15:10;4.40;;;2.95;;
14907;SDS011;7545;52.092;7.006;2024-02-15T08:17:42;8.77;;;3.03;;
14907;SDS011;7545;52.092;7.006;2024-02-15T08:20:11;7.10;;;3.63;;
14907;SDS011;7545;52.092;7.006;2024-02-15T08:22:38;9.48;;;3.40;;
14907;SDS011;7545;52.092;7.006;2024-02-15T08:25:08;8.25;;;3.70;;
14907;SDS011;7545;52.092;7.006;2024-02-15T08:30:09;9.82;;;3.80;;
14907;SDS011;7545;52.092;7.006;2024-02-15T08:32:42;7.45;;;3.55;;
14907;SDS011;7545;52.092;7.006;2024-02-15T08:35:09;9.07;;;3.65;;
14907;SDS011;7545;52.092;7.006;2024-02-15T08:37:36;7.05;;;3.70;;
14907;SDS011;7545;52.092;7.006;2024-02-15T08:40:03;7.55;;;3.47;;
14907;SDS011;7545;52.092;7.006;2024-02-15T08:42:42;5.07;;;3.10;;
14907;SDS011;7545;52.092;7.006;2024-02-15T08:45:08;6.82;;;3.10;;
14907;SDS011;7545;52.092;7.006;2024-02-15T08:47:35;5.00;;;3.50;;
14907;SDS011;7545;52.092;7.006;2024-02-15T08:50:05;5.32;;;3.60;;
14907;SDS011;7545;52.092;7.006;2024-02-15T08:52:34;6.55;;;3.53;;
14907;SDS011;7545;52.092;7.006;2024-02-15T08:55:02;7.72;;;3.05;;
14907;SDS011;7545;52.092;7.006;2024-02-15T08:57:32;6.10;;;3.45;;
14907;SDS011;7545;52.092;7.006;2024-02-15T08:59:59;6.20;;;3.28;;
14907;SDS011;7545;52.092;7.006;2024-02-15T09:02:24;9.35;;;4.07;;
14907;SDS011;7545;52.092;7.006;2024-02-15T09:04:50;4.88;;;3.45;;
14907;SDS011;7545;52.092;7.006;2024-02-15T09:07:16;5.53;;;3.58;;
14907;SDS011;7545;52.092;7.006;2024-02-15T09:09:41;6.30;;;3.38;;
14907;SDS011;7545;52.092;7.006;2024-02-15T09:12:07;5.95;;;3.53;;
14907;SDS011;7545;52.092;7.006;2024-02-15T09:14:33;5.55;;;2.85;;
14907;SDS011;7545;52.092;7.006;2024-02-15T09:16:59;4.35;;;2.58;;
14907;SDS011;7545;52.092;7.006;2024-02-15T09:19:25;5.95;;;3.38;;
14907;SDS011;7545;52.092;7.006;2024-02-15T09:21:50;5.20;;;3.03;;
14907;SDS011;7545;52.092;7.006;2024-02-15T09:24:16;5.43;;;3.28;;
14907;SDS011;7545;52.092;7.006;2024-02-15T09:26:42;6.25;;;3.70;;
14907;SDS011;7545;52.092;7.006;2024-02-15T09:29:09;7.00;;;3.38;;
14907;SDS011;7545;52.092;7.006;2024-02-15T09:31:35;5.65;;;3.22;;
14907;SDS011;7545;52.092;7.006;2024-02-15T09:34:01;6.65;;;3.45;;
14907;SDS011;7545;52.092;7.006;2024-02-15T09:36:33;8.40;;;3.58;;
14907;SDS011;7545;52.092;7.006;2024-02-15T09:39:00;4.97;;;2.83;;
14907;SDS011;7545;52.092;7.006;2024-02-15T09:41:25;5.30;;;3.10;;
14907;SDS011;7545;52.092;7.006;2024-02-15T09:43:51;6.10;;;3.15;;
14907;SDS011;7545;52.092;7.006;2024-02-15T09:46:17;5.40;;;3.17;;
14907;SDS011;7545;52.092;7.006;2024-02-15T09:48:43;5.63;;;2.80;;
14907;SDS011;7545;52.092;7.006;2024-02-15T09:51:14;5.93;;;4.10;;
14907;SDS011;7545;52.092;7.006;2024-02-15T09:53:43;4.47;;;2.75;;
14907;SDS011;7545;52.092;7.006;2024-02-15T09:56:11;4.93;;;2.72;;
14907;SDS011;7545;52.092;7.006;2024-02-15T09:58:39;3.92;;;2.88;;
14907;SDS011;7545;52.092;7.006;2024-02-15T10:01:05;6.00;;;3.17;;
14907;SDS011;7545;52.092;7.006;2024-02-15T10:03:34;3.75;;;2.10;;
14907;SDS011;7545;52.092;7.006;2024-02-15T10:06:05;3.10;;;2.25;;
14907;SDS011;7545;52.092;7.006;2024-02-15T10:08:31;3.55;;;3.00;;
14907;SDS011;7545;52.092;7.006;2024-02-15T10:11:06;5.13;;;2.67;;
14907;SDS011;7545;52.092;7.006;2024-02-15T10:13:33;3.60;;;2.00;;
14907;SDS011;7545;52.092;7.006;2024-02-15T10:15:59;3.22;;;2.38;;
14907;SDS011;7545;52.092;7.006;2024-02-15T10:18:43;2.80;;;2.47;;
14907;SDS011;7545;52.092;7.006;2024-02-15T10:21:27;3.75;;;2.70;;
14907;SDS011;7545;52.092;7.006;2024-02-15T10:24:08;6.82;;;3.03;;
14907;SDS011;7545;52.092;7.006;2024-02-15T10:26:34;2.80;;;2.47;;
14907;SDS011;7545;52.092;7.006;2024-02-15T10:29:12;7.00;;;2.83;;
14907;SDS011;7545;52.092;7.006;2024-02-15T10:31:40;4.70;;;3.00;;
14907;SDS011;7545;52.092;7.006;2024-02-15T10:34:18;4.50;;;3.75;;
14907;SDS011;7545;52.092;7.006;2024-02-15T10:36:52;5.60;;;3.20;;
14907;SDS011;7545;52.092;7.006;2024-02-15T10:39:36;5.43;;;3.50;;
14907;SDS011;7545;52.092;7.006;2024-02-15T10:42:02;6.30;;;3.33;;
14907;SDS011;7545;52.092;7.006;2024-02-15T10:44:31;7.00;;;3.80;;
14907;SDS011;7545;52.092;7.006;2024-02-15T10:46:59;10.40;;;4.47;;
14907;SDS011;7545;52.092;7.006;2024-02-15T10:49:31;5.53;;;4.05;;
14907;SDS011;7545;52.092;7.006;2024-02-15T10:51:57;5.63;;;4.13;;
14907;SDS011;7545;52.092;7.006;2024-02-15T10:56:53;8.23;;;3.28;;
14907;SDS011;7545;52.092;7.006;2024-02-15T10:59:21;7.32;;;4.22;;
14907;SDS011;7545;52.092;7.006;2024-02-15T11:01:56;6.85;;;3.78;;
14907;SDS011;7545;52.092;7.006;2024-02-15T11:04:25;4.95;;;3.75;;
14907;SDS011;7545;52.092;7.006;2024-02-15T11:06:57;5.63;;;3.15;;
14907;SDS011;7545;52.092;7.006;2024-02-15T11:09:23;7.75;;;3.95;;
14907;SDS011;7545;52.092;7.006;2024-02-15T11:11:53;5.57;;;3.58;;
14907;SDS011;7545;52.092;7.006;2024-02-15T11:14:27;7.05;;;3.42;;
14907;SDS011;7545;52.092;7.006;2024-02-15T11:16:58;6.38;;;3.58;;
14907;SDS011;7545;52.092;7.006;2024-02-15T11:22:00;6.78;;;3.67;;
14907;SDS011;7545;52.092;7.006;2024-02-15T11:24:30;5.97;;;3.00;;
14907;SDS011;7545;52.092;7.006;2024-02-15T11:27:05;4.72;;;2.70;;
14907;SDS011;7545;52.092;7.006;2024-02-15T11:35:12;8.18;;;2.83;;
14907;SDS011;7545;52.092;7.006;2024-02-15T11:40:14;5.38;;;2.85;;
14907;SDS011;7545;52.092;7.006;2024-02-15T11:42:53;5.80;;;2.70;;
14907;SDS011;7545;52.092;7.006;2024-02-15T11:45:23;4.72;;;2.85;;
14907;SDS011;7545;52.092;7.006;2024-02-15T11:47:50;6.78;;;3.08;;
14907;SDS011;7545;52.092;7.006;2024-02-15T11:50:18;3.28;;;1.92;;
14907;SDS011;7545;52.092;7.006;2024-02-15T11:52:45;3.55;;;2.15;;
14907;SDS011;7545;52.092;7.006;2024-02-15T11:55:13;4.75;;;2.47;;
14907;SDS011;7545;52.092;7.006;2024-02-15T11:57:56;3.35;;;2.00;;
14907;SDS011;7545;52.092;7.006;2024-02-15T12:00:34;4.13;;;1.90;;
14907;SDS011;7545;52.092;7.006;2024-02-15T12:03:20;5.78;;;2.50;;
14907;SDS011;7545;52.092;7.006;2024-02-15T12:06:04;7.97;;;2.50;;
14907;SDS011;7545;52.092;7.006;2024-02-15T12:08:51;4.10;;;2.30;;
14907;SDS011;7545;52.092;7.006;2024-02-15T12:11:36;4.13;;;2.40;;
14907;SDS011;7545;52.092;7.006;2024-02-15T12:14:20;5.25;;;2.60;;
14907;SDS011;7545;52.092;7.006;2024-02-15T12:17:05;5.03;;;2.42;;
14907;SDS011;7545;52.092;7.006;2024-02-15T12:19:51;4.30;;;2.00;;
14907;SDS011;7545;52.092;7.006;2024-02-15T12:22:22;3.55;;;2.17;;
14907;SDS011;7545;52.092;7.006;2024-02-15T12:24:55;5.00;;;2.50;;
14907;SDS011;7545;52.092;7.006;2024-02-15T12:27:25;3.72;;;2.85;;
14907;SDS011;7545;52.092;7.006;2024-02-15T12:29:58;6.57;;;2.47;;
14907;SDS011;7545;52.092;7.006;2024-02-15T12:32:27;3.38;;;2.22;;
14907;SDS011;7545;52.092;7.006;2024-02-15T12:34:53;5.43;;;1.92;;
14907;SDS011;7545;52.092;7.006;2024-02-15T12:40:14;6.72;;;2.63;;
14907;SDS011;7545;52.092;7.006;2024-02-15T12:42:44;5.40;;;2.03;;
14907;SDS011;7545;52.092;7.006;2024-02-15T12:45:17;5.72;;;2.10;;
14907;SDS011;7545;52.092;7.006;2024-02-15T12:47:45;2.85;;;1.77;;
14907;SDS011;7545;52.092;7.006;2024-02-15T12:50:18;3.42;;;2.40;;
14907;SDS011;7545;52.092;7.006;2024-02-15T12:52:45;3.28;;;1.95;;
14907;SDS011;7545;52.092;7.006;2024-02-15T12:57:52;5.53;;;2.38;;
14907;SDS011;7545;52.092;7.006;2024-02-15T13:00:22;4.95;;;1.95;;
14907;SDS011;7545;52.092;7.006;2024-02-15T13:02:53;6.70;;;3.40;;
14907;SDS011;7545;52.092;7.006;2024-02-15T13:05:20;6.10;;;1.98;;
14907;SDS011;7545;52.092;7.006;2024-02-15T13:07:51;8.63;;;2.00;;
14907;SDS011;7545;52.092;7.006;2024-02-15T13:10:20;4.72;;;2.05;;
14907;SDS011;7545;52.092;7.006;2024-02-15T13:12:46;2.50;;;2.22;;
14907;SDS011;7545;52.092;7.006;2024-02-15T13:15:12;3.05;;;1.70;;
14907;SDS011;7545;52.092;7.006;2024-02-15T13:17:49;2.53;;;2.03;;
14907;SDS011;7545;52.092;7.006;2024-02-15T13:20:21;3.30;;;1.95;;
14907;SDS011;7545;52.092;7.006;2024-02-15T13:23:04;3.95;;;1.83;;
14907;SDS011;7545;52.092;7.006;2024-02-15T13:25:34;4.03;;;1.90;;
14907;SDS011;7545;52.092;7.006;2024-02-15T13:28:05;4.35;;;2.00;;
14907;SDS011;7545;52.092;7.006;2024-02-15T13:30:31;4.45;;;2.05;;
14907;SDS011;7545;52.092;7.006;2024-02-15T13:32:57;2.47;;;1.90;;
14907;SDS011;7545;52.092;7.006;2024-02-15T13:35:24;6.53;;;3.42;;
14907;SDS011;7545;52.092;7.006;2024-02-15T13:37:50;2.90;;;1.92;;
14907;SDS011;7545;52.092;7.006;2024-02-15T13:40:19;3.33;;;1.85;;
14907;SDS011;7545;52.092;7.006;2024-02-15T13:42:49;4.70;;;2.17;;
14907;SDS011;7545;52.092;7.006;2024-02-15T13:45:21;5.85;;;2.22;;
14907;SDS011;7545;52.092;7.006;2024-02-15T13:47:48;3.97;;;2.15;;
14907;SDS011;7545;52.092;7.006;2024-02-15T13:50:14;3.38;;;2.25;;
14907;SDS011;7545;52.092;7.006;2024-02-15T13:52:40;7.60;;;2.60;;
14907;SDS011;7545;52.092;7.006;2024-02-15T13:55:09;6.95;;;2.35;;
14907;SDS011;7545;52.092;7.006;2024-02-15T13:57:39;6.18;;;2.03;;
14907;SDS011;7545;52.092;7.006;2024-02-15T14:00:09;5.45;;;1.70;;
14907;SDS011;7545;52.092;7.006;2024-02-15T14:02:42;5.18;;;1.98;;
14907;SDS011;7545;52.092;7.006;2024-02-15T14:05:10;7.45;;;2.78;;
14907;SDS011;7545;52.092;7.006;2024-02-15T14:07:37;4.57;;;1.90;;
14907;SDS011;7545;52.092;7.006;2024-02-15T14:10:04;4.20;;;2.25;;
14907;SDS011;7545;52.092;7.006;2024-02-15T14:12:31;5.57;;;1.83;;
14907;SDS011;7545;52.092;7.006;2024-02-15T14:14:56;7.35;;;2.28;;
14907;SDS011;7545;52.092;7.006;2024-02-15T14:17:22;3.67;;;2.00;;
14907;SDS011;7545;52.092;7.006;2024-02-15T14:19:49;6.07;;;2.58;;
14907;SDS011;7545;52.092;7.006;2024-02-15T14:22:15;4.97;;;1.75;;
14907;SDS011;7545;52.092;7.006;2024-02-15T14:24:43;2.72;;;1.77;;
14907;SDS011;7545;52.092;7.006;2024-02-15T14:27:12;4.57;;;2.30;;
14907;SDS011;7545;52.092;7.006;2024-02-15T14:29:39;5.22;;;1.80;;
14907;SDS011;7545;52.092;7.006;2024-02-15T14:32:25;6.35;;;2.08;;
14907;SDS011;7545;52.092;7.006;2024-02-15T14:35:09;4.07;;;2.13;;
14907;SDS011;7545;52.092;7.006;2024-02-15T14:37:34;5.68;;;1.98;;
14907;SDS011;7545;52.092;7.006;2024-02-15T14:40:00;3.63;;;1.85;;
14907;SDS011;7545;52.092;7.006;2024-02-15T14:42:25;5.53;;;2.35;;
14907;SDS011;7545;52.092;7.006;2024-02-15T14:44:51;4.57;;;2.25;;
14907;SDS011;7545;52.092;7.006;2024-02-15T14:47:17;6.32;;;2.65;;
14907;SDS011;7545;52.092;7.006;2024-02-15T14:49:43;8.10;;;2.10;;
14907;SDS011;7545;52.092;7.006;2024-02-15T14:52:09;2.60;;;2.03;;
14907;SDS011;7545;52.092;7.006;2024-02-15T14:54:34;4.65;;;1.98;;
14907;SDS011;7545;52.092;7.006;2024-02-15T14:57:01;5.28;;;2.20;;
14907;SDS011;7545;52.092;7.006;2024-02-15T14:59:26;4.40;;;2.10;;
14907;SDS011;7545;52.092;7.006;2024-02-15T15:01:52;7.03;;;2.45;;
14907;SDS011;7545;52.092;7.006;2024-02-15T15:04:18;5.00;;;1.83;;
14907;SDS011;7545;52.092;7.006;2024-02-15T15:06:44;2.35;;;1.63;;
14907;SDS011;7545;52.092;7.006;2024-02-15T15:09:28;3.38;;;2.05;;
14907;SDS011;7545;52.092;7.006;2024-02-15T15:12:12;5.05;;;2.53;;
14907;SDS011;7545;52.092;7.006;2024-02-15T15:14:56;7.93;;;2.78;;
14907;SDS011;7545;52.092;7.006;2024-02-15T15:17:22;7.72;;;4.38;;
14907;SDS011;7545;52.092;7.006;2024-02-15T15:19:47;5.72;;;2.40;;
14907;SDS011;7545;52.092;7.006;2024-02-15T15:22:13;8.00;;;2.20;;
14907;SDS011;7545;52.092;7.006;2024-02-15T15:24:39;3.30;;;1.70;;